Lumberton, North Carolina
Current Conditions -  °F | °C
As of 4:54 PM on Friday 24 Oct 2014 (Local Time) from KLBT Reporting Station
Clear Clear  
Wind Chill: 73°   Ceiling: Unl
Heat Index: 73°   Visibility: 10mi
Dew Point: 44°   Wind: 3mph
Humidity: 35%   Direction: 220°SW
Pressure: 29.96"   Gusts: NA
Location:  34.62°N, 79.01°W
Report Text: KLBT 242054Z AUTO 22003KT 10SM CLR 23/07 A2996 RMK AO2 SLP144 T02280067 55013
Loading
Personal Weather Stations






























Interactive Weather Map New forecast layout! Learn more

10-Day Weather Forecast

Advertisements
Track Severe Weather on mobile